Whitefield, New Hampshire
Current Conditions -  °F | °C
As of 7:52 PM on Tuesday 21 Oct 2014 (Local Time) from KHIE Reporting Station
Overcast Overcast  
Wind Chill: 43°   Ceiling: 6000
Heat Index: 48°   Visibility: 10mi
Dew Point: 43°   Wind: 10mph
Humidity: 83%   Direction: 80°E
Pressure: 30.03"   Gusts: NA
Location:  44.37°N, 71.62°W
Report Text: KHIE 212352Z AUTO 08009KT 10SM OVC060 09/06 A3003 RMK AO2 SLP179 60005 T00890061 10089 20083 51010
Loading
Personal Weather Stations






























Interactive Weather Map
Tropical Storm Tracking
New forecast layout! Learn more

10-Day Weather Forecast

Advertisements
Track Severe Weather on mobile